Time;durP1;ratioP1;P1;durP2;ratioP2;P2;SDS_P1;SDS_P2;PMS_P1;PMS_P2;Temp;Humidity;BMP_temperature;BMP_pressure;BME280_temperature;BME280_humidity;BME280_pressure;Samples;Min_cycle;Max_cycle;Signal;HPM_P1;HPM_P2
2022/03/15 00:01:12;;;;;;;10.75;4.72;;;9.00;74.30;;;;;;5070315;28;20060;-63
2022/03/15 00:03:38;;;;;;;12.88;4.97;;;8.90;74.50;;;;;;5068773;28;20048;-62
2022/03/15 00:06:04;;;;;;;12.65;5.32;;;8.90;74.60;;;;;;5070454;28;20402;-62
2022/03/15 00:08:30;;;;;;;10.15;4.72;;;8.90;74.60;;;;;;5070003;28;20244;-62
2022/03/15 00:10:58;;;;;;;14.80;4.47;;;8.90;74.50;;;;;;5054039;28;20029;-62
2022/03/15 00:13:28;;;;;;;7.90;4.10;;;8.90;74.40;;;;;;5047120;28;20357;-62
2022/03/15 00:15:54;;;;;;;11.55;4.13;;;8.90;74.40;;;;;;5048667;28;20580;-62
2022/03/15 00:18:20;;;;;;;8.15;3.83;;;8.90;74.30;;;;;;5051457;28;20098;-62
2022/03/15 00:20:46;;;;;;;9.95;4.00;;;8.80;74.20;;;;;;5062165;28;20103;-64
2022/03/15 00:23:12;;;;;;;7.78;3.75;;;8.80;74.30;;;;;;5047964;28;20120;-65
2022/03/15 00:25:38;;;;;;;9.70;4.93;;;8.80;74.40;;;;;;5050962;28;20033;-65
2022/03/15 00:28:04;;;;;;;10.05;4.22;;;8.80;74.60;;;;;;5051177;28;20452;-65
2022/03/15 00:30:29;;;;;;;8.43;3.38;;;8.80;74.60;;;;;;5049400;28;20029;-65
2022/03/15 00:32:55;;;;;;;11.93;3.92;;;8.70;74.50;;;;;;5055387;28;20031;-64
2022/03/15 00:35:23;;;;;;;7.70;3.47;;;8.70;74.40;;;;;;5052846;28;20438;-64
2022/03/15 00:37:52;;;;;;;9.50;4.65;;;8.70;74.30;;;;;;5051729;28;20041;-62
2022/03/15 00:40:19;;;;;;;8.23;4.32;;;8.70;74.30;;;;;;5049543;28;20029;-62
2022/03/15 00:42:50;;;;;;;11.68;4.75;;;8.70;74.40;;;;;;5049952;28;20064;-62
2022/03/15 00:45:17;;;;;;;9.73;4.45;;;8.70;74.40;;;;;;5049677;28;20025;-62
2022/03/15 00:47:42;;;;;;;12.82;5.30;;;8.70;74.40;;;;;;5049388;28;20029;-62
2022/03/15 00:50:09;;;;;;;9.98;4.80;;;8.70;74.50;;;;;;5048881;28;20033;-62
2022/03/15 00:52:34;;;;;;;11.38;6.03;;;8.70;74.50;;;;;;5064889;28;20074;-62
2022/03/15 00:55:00;;;;;;;11.90;5.43;;;8.70;74.60;;;;;;5059563;28;20028;-62
2022/03/15 00:57:26;;;;;;;13.63;5.63;;;8.60;74.80;;;;;;5055300;28;20041;-65
2022/03/15 00:59:52;;;;;;;12.23;6.03;;;8.60;74.90;;;;;;5049087;28;20439;-64
2022/03/15 01:02:17;;;;;;;12.18;6.07;;;8.60;74.90;;;;;;5059353;28;20119;-65
2022/03/15 01:04:43;;;;;;;11.15;5.15;;;8.60;74.80;;;;;;5053351;28;20043;-64
2022/03/15 01:07:12;;;;;;;9.30;5.88;;;8.60;75.00;;;;;;5060096;28;20041;-62
2022/03/15 01:09:39;;;;;;;8.63;5.07;;;8.60;75.00;;;;;;5049337;28;20496;-62
2022/03/15 01:12:05;;;;;;;18.30;6.20;;;8.60;75.10;;;;;;5053929;28;20021;-64
2022/03/15 01:14:30;;;;;;;14.50;5.88;;;8.50;75.20;;;;;;5057590;28;20498;-64
2022/03/15 01:16:57;;;;;;;8.52;5.25;;;8.50;75.20;;;;;;5049038;28;20036;-64
2022/03/15 01:19:26;;;;;;;10.65;5.97;;;8.60;75.20;;;;;;5049392;28;20033;-64
2022/03/15 01:21:52;;;;;;;11.10;6.00;;;8.50;75.20;;;;;;5049186;28;20574;-64
2022/03/15 01:24:18;;;;;;;12.05;6.60;;;8.50;75.20;;;;;;5057988;28;20025;-64
2022/03/15 01:26:44;;;;;;;9.60;5.70;;;8.50;75.20;;;;;;5060229;28;20194;-64
2022/03/15 01:29:10;;;;;;;12.45;6.47;;;8.50;75.20;;;;;;5047366;28;20037;-64
2022/03/15 01:31:36;;;;;;;12.13;5.63;;;8.50;75.30;;;;;;5052553;28;20357;-65
2022/03/15 01:34:01;;;;;;;13.90;5.85;;;8.50;75.20;;;;;;5048336;28;20049;-64
2022/03/15 01:36:27;;;;;;;13.57;5.25;;;8.50;75.20;;;;;;5049945;28;20214;-64
2022/03/15 01:38:53;;;;;;;11.25;5.78;;;8.50;75.30;;;;;;5050153;28;20040;-64
2022/03/15 01:41:21;;;;;;;13.27;6.30;;;8.40;75.30;;;;;;5062089;28;20028;-64
2022/03/15 01:43:47;;;;;;;18.52;6.15;;;8.40;75.40;;;;;;5047199;28;20025;-64
2022/03/15 01:46:13;;;;;;;11.90;6.15;;;8.40;75.50;;;;;;5047277;28;20033;-62
2022/03/15 01:48:39;;;;;;;10.77;5.35;;;8.40;75.60;;;;;;5049725;28;20511;-62
2022/03/15 01:51:06;;;;;;;12.52;6.47;;;8.40;75.80;;;;;;5053850;28;20026;-65
2022/03/15 01:53:33;;;;;;;13.82;6.82;;;8.40;76.60;;;;;;5063145;28;20032;-62
2022/03/15 01:56:01;;;;;;;14.82;6.78;;;8.40;76.10;;;;;;5057769;28;20025;-62
2022/03/15 01:58:28;;;;;;;11.25;6.10;;;8.40;76.30;;;;;;5054186;28;20071;-64
2022/03/15 02:00:54;;;;;;;15.20;5.95;;;8.40;76.40;;;;;;5052931;28;20479;-62
2022/03/15 02:03:19;;;;;;;15.57;6.35;;;8.40;76.60;;;;;;5048142;28;20037;-62
2022/03/15 02:05:45;;;;;;;13.43;6.78;;;8.40;76.70;;;;;;5047712;28;20541;-64
2022/03/15 02:08:16;;;;;;;12.50;6.35;;;8.40;77.40;;;;;;5048349;28;20033;-64
2022/03/15 02:10:42;;;;;;;18.52;6.60;;;8.40;76.90;;;;;;5049279;28;20028;-64
2022/03/15 02:13:09;;;;;;;13.00;6.82;;;8.40;76.90;;;;;;5048095;28;20025;-65
2022/03/15 02:15:35;;;;;;;14.25;9.00;;;8.40;77.10;;;;;;5048486;28;20407;-62
2022/03/15 02:18:00;;;;;;;24.17;10.35;;;8.40;77.10;;;;;;5049025;28;20036;-62
2022/03/15 02:20:27;;;;;;;17.95;9.45;;;8.40;77.20;;;;;;5048564;28;20021;-65
2022/03/15 02:22:53;;;;;;;15.13;8.65;;;8.40;77.30;;;;;;5048384;28;20152;-64
2022/03/15 02:25:19;;;;;;;14.73;8.95;;;8.40;77.50;;;;;;5034459;28;20045;-63
2022/03/15 02:27:45;;;;;;;13.95;6.72;;;8.40;77.60;;;;;;5048496;28;20040;-64
2022/03/15 02:30:11;;;;;;;19.38;7.57;;;8.40;77.70;;;;;;5048634;28;20025;-64
2022/03/15 02:32:38;;;;;;;13.65;7.88;;;8.40;77.70;;;;;;5047640;28;20032;-65
2022/03/15 02:35:05;;;;;;;14.10;7.55;;;8.40;77.70;;;;;;5047955;28;20017;-64
2022/03/15 02:37:32;;;;;;;12.35;7.15;;;8.40;77.60;;;;;;5052248;28;20487;-63
2022/03/15 02:39:58;;;;;;;15.23;8.60;;;8.40;77.70;;;;;;5052737;28;20025;-66
2022/03/15 02:42:23;;;;;;;19.45;9.27;;;8.30;77.80;;;;;;5051028;28;20373;-63
2022/03/15 02:44:49;;;;;;;14.65;8.63;;;8.30;77.90;;;;;;5052883;28;20043;-66
2022/03/15 02:47:15;;;;;;;12.38;8.27;;;8.40;78.00;;;;;;5050911;28;20083;-63
2022/03/15 02:49:41;;;;;;;18.08;10.32;;;8.40;78.00;;;;;;5052586;28;20036;-60
2022/03/15 02:52:07;;;;;;;14.70;8.82;;;8.40;78.10;;;;;;5051597;28;20456;-63
2022/03/15 02:54:33;;;;;;;17.55;8.77;;;8.40;78.10;;;;;;5051114;28;20033;-66
2022/03/15 02:56:58;;;;;;;15.00;8.32;;;8.30;78.00;;;;;;5052011;28;20122;-62
2022/03/15 02:59:25;;;;;;;16.88;9.48;;;8.30;78.10;;;;;;5052571;28;20502;-61
2022/03/15 03:01:50;;;;;;;18.85;10.02;;;8.30;78.20;;;;;;5052432;28;20033;-62
2022/03/15 03:04:17;;;;;;;20.50;9.77;;;8.30;78.10;;;;;;5051439;28;20108;-63
2022/03/15 03:06:43;;;;;;;19.30;9.65;;;8.30;78.20;;;;;;5052170;28;20124;-62
2022/03/15 03:09:11;;;;;;;14.93;8.77;;;8.30;78.30;;;;;;5052509;28;20108;-63
2022/03/15 03:11:37;;;;;;;16.92;8.82;;;8.30;78.40;;;;;;5051322;28;20061;-64
2022/03/15 03:14:04;;;;;;;18.20;8.73;;;8.30;78.50;;;;;;5050795;28;20029;-61
2022/03/15 03:16:30;;;;;;;18.00;7.43;;;8.30;78.50;;;;;;5052287;28;20033;-64
2022/03/15 03:18:59;;;;;;;16.25;8.85;;;8.30;78.50;;;;;;5051703;28;20040;-64
2022/03/15 03:21:25;;;;;;;14.10;8.23;;;8.30;78.50;;;;;;5050908;28;20025;-62
2022/03/15 03:23:53;;;;;;;17.20;9.57;;;8.30;78.50;;;;;;5051888;28;20028;-62
2022/03/15 03:26:20;;;;;;;16.05;9.23;;;8.20;78.50;;;;;;5051767;28;20045;-61
2022/03/15 03:28:46;;;;;;;18.77;8.45;;;8.20;78.50;;;;;;5051404;28;20075;-62
2022/03/15 03:31:11;;;;;;;20.75;9.35;;;8.20;78.50;;;;;;5051872;28;20033;-64
2022/03/15 03:33:38;;;;;;;17.55;8.95;;;8.20;78.50;;;;;;5051021;28;20025;-61
2022/03/15 03:36:04;;;;;;;17.77;9.38;;;8.20;78.50;;;;;;5051967;28;20037;-61
2022/03/15 03:38:30;;;;;;;18.75;8.90;;;8.20;78.50;;;;;;5050623;28;20037;-61
2022/03/15 03:40:57;;;;;;;12.38;7.28;;;8.20;78.60;;;;;;5035144;28;20522;-64
2022/03/15 03:43:23;;;;;;;15.68;8.48;;;8.20;78.50;;;;;;5047369;28;20025;-64
2022/03/15 03:45:49;;;;;;;14.23;7.95;;;8.20;78.50;;;;;;5047005;28;20041;-61
2022/03/15 03:48:15;;;;;;;15.23;8.60;;;8.20;78.50;;;;;;5043473;28;20415;-64
2022/03/15 03:50:41;;;;;;;14.57;8.00;;;8.20;78.50;;;;;;5045182;28;20029;-64
2022/03/15 03:53:06;;;;;;;14.77;7.72;;;8.10;78.40;;;;;;5048143;28;20040;-61
2022/03/15 03:55:33;;;;;;;22.25;10.52;;;8.10;78.40;;;;;;5050452;28;20117;-64
2022/03/15 03:58:00;;;;;;;15.07;8.68;;;8.20;78.60;;;;;;5051009;28;20051;-64
2022/03/15 04:00:26;;;;;;;13.73;7.63;;;8.10;78.60;;;;;;5051343;28;20031;-64
2022/03/15 04:02:52;;;;;;;13.70;7.43;;;8.10;78.60;;;;;;5050920;28;20064;-64
2022/03/15 04:05:18;;;;;;;12.93;8.10;;;8.10;78.50;;;;;;5050901;28;20033;-64
2022/03/15 04:07:44;;;;;;;19.63;8.05;;;8.10;78.60;;;;;;5049229;28;20462;-64
2022/03/15 04:10:10;;;;;;;17.80;8.60;;;8.10;78.60;;;;;;5051097;28;20052;-61
2022/03/15 04:12:36;;;;;;;17.40;8.80;;;8.10;78.60;;;;;;5046785;28;20041;-61
2022/03/15 04:15:06;;;;;;;14.73;8.70;;;8.10;78.70;;;;;;5051231;28;20024;-61
2022/03/15 04:17:32;;;;;;;17.02;9.05;;;8.10;78.80;;;;;;5048776;28;20048;-61
2022/03/15 04:19:58;;;;;;;18.02;8.48;;;8.10;78.80;;;;;;5051018;28;20503;-61
2022/03/15 04:22:24;;;;;;;15.32;8.25;;;8.00;78.90;;;;;;5049040;28;20107;-64
2022/03/15 04:24:49;;;;;;;15.80;8.85;;;8.00;78.90;;;;;;5050187;28;20068;-64
2022/03/15 04:27:16;;;;;;;14.18;7.60;;;8.00;79.10;;;;;;5049529;28;20029;-61
2022/03/15 04:29:42;;;;;;;12.85;7.97;;;8.00;79.10;;;;;;5066876;28;20025;-64
2022/03/15 04:32:08;;;;;;;14.70;7.50;;;8.00;79.10;;;;;;5050737;28;20032;-61
2022/03/15 04:34:34;;;;;;;12.68;8.32;;;8.00;79.70;;;;;;5050415;28;20083;-61
2022/03/15 04:37:00;;;;;;;15.15;8.25;;;8.00;79.10;;;;;;5049099;28;20068;-62
2022/03/15 04:39:25;;;;;;;12.38;7.95;;;8.00;79.20;;;;;;5050525;28;21412;-61
2022/03/15 04:41:51;;;;;;;14.18;7.50;;;8.00;79.30;;;;;;5050360;28;20033;-61
2022/03/15 04:44:18;;;;;;;13.43;7.45;;;8.00;79.40;;;;;;5050264;28;20090;-62
2022/03/15 04:46:44;;;;;;;12.73;6.97;;;8.00;79.30;;;;;;5050352;28;20036;-62
2022/03/15 04:49:09;;;;;;;14.48;8.20;;;8.00;79.40;;;;;;5050474;28;20029;-61
2022/03/15 04:51:35;;;;;;;16.48;7.60;;;8.00;79.30;;;;;;5050451;28;20037;-62
2022/03/15 04:54:01;;;;;;;22.52;8.05;;;8.00;79.40;;;;;;5050393;28;20464;-61
2022/03/15 04:56:27;;;;;;;17.90;8.45;;;8.00;79.40;;;;;;5048612;28;20065;-61
2022/03/15 04:58:52;;;;;;;13.80;7.55;;;7.90;79.50;;;;;;5049405;28;20099;-64
2022/03/15 05:01:18;;;;;;;12.65;7.53;;;8.00;79.70;;;;;;5049740;28;20278;-64
2022/03/15 05:03:44;;;;;;;12.95;7.22;;;7.90;79.70;;;;;;5049503;28;20538;-64
2022/03/15 05:06:10;;;;;;;11.32;7.32;;;7.90;79.70;;;;;;5032461;28;20047;-64
2022/03/15 05:08:36;;;;;;;13.77;7.55;;;8.00;79.90;;;;;;5049612;28;20040;-63
2022/03/15 05:11:08;;;;;;;14.00;6.93;;;7.90;79.80;;;;;;5050463;28;20032;-64
2022/03/15 05:13:35;;;;;;;14.00;8.20;;;7.90;79.80;;;;;;5047853;28;20438;-64
2022/03/15 05:16:01;;;;;;;10.45;7.32;;;7.90;79.80;;;;;;5049725;28;20032;-61
2022/03/15 05:18:27;;;;;;;15.10;7.43;;;7.90;79.80;;;;;;5049790;28;20033;-61
2022/03/15 05:20:53;;;;;;;14.27;7.78;;;7.90;79.80;;;;;;5048824;28;20388;-61
2022/03/15 05:23:18;;;;;;;12.30;7.07;;;7.90;79.80;;;;;;5048342;28;20350;-62
2022/03/15 05:25:44;;;;;;;12.05;7.55;;;7.90;79.80;;;;;;5048223;28;20547;-61
2022/03/15 05:28:10;;;;;;;12.85;8.05;;;7.90;79.80;;;;;;5049301;28;20025;-64
2022/03/15 05:30:37;;;;;;;25.80;14.90;;;7.90;79.80;;;;;;5048804;28;20396;-61
2022/03/15 05:33:02;;;;;;;18.73;11.05;;;7.80;79.80;;;;;;5049317;28;20491;-64
2022/03/15 05:35:28;;;;;;;21.80;9.52;;;7.90;79.80;;;;;;5049352;28;20181;-64
2022/03/15 05:37:54;;;;;;;17.55;9.25;;;7.80;79.80;;;;;;5048853;28;20041;-64
2022/03/15 05:40:20;;;;;;;16.00;9.32;;;7.80;80.00;;;;;;5047894;28;20044;-64
2022/03/15 05:42:46;;;;;;;14.55;9.00;;;7.80;80.00;;;;;;5047637;28;20087;-64
2022/03/15 05:45:12;;;;;;;11.02;7.18;;;7.80;80.10;;;;;;5049218;28;20039;-61
2022/03/15 05:47:38;;;;;;;19.85;8.95;;;7.80;80.10;;;;;;5047269;28;20111;-61
2022/03/15 05:50:05;;;;;;;12.63;7.80;;;7.80;80.10;;;;;;5049704;28;20559;-63
2022/03/15 05:52:30;;;;;;;12.20;7.68;;;7.80;80.10;;;;;;5048986;28;20040;-64
2022/03/15 05:54:56;;;;;;;13.93;7.03;;;7.80;80.10;;;;;;5049465;28;20035;-64
2022/03/15 05:57:23;;;;;;;16.58;8.07;;;7.80;80.10;;;;;;5048387;28;20033;-66
2022/03/15 05:59:49;;;;;;;12.23;7.75;;;7.80;80.10;;;;;;5049236;28;20132;-63
2022/03/15 06:02:15;;;;;;;10.30;6.45;;;7.80;80.10;;;;;;5048955;28;20040;-60
2022/03/15 06:04:40;;;;;;;11.68;7.03;;;7.80;80.20;;;;;;5049406;28;20108;-64
2022/03/15 06:07:06;;;;;;;12.02;7.20;;;7.80;80.20;;;;;;5048547;28;20167;-64
2022/03/15 06:09:32;;;;;;;13.80;7.78;;;7.80;80.30;;;;;;5048515;28;20112;-64
2022/03/15 06:11:58;;;;;;;11.70;7.85;;;7.80;80.30;;;;;;5047619;28;20021;-64
2022/03/15 06:14:24;;;;;;;14.35;8.27;;;7.80;80.40;;;;;;5049154;28;20402;-64
2022/03/15 06:16:50;;;;;;;13.65;7.35;;;7.80;80.50;;;;;;5049438;28;20108;-64
2022/03/15 06:19:17;;;;;;;13.35;7.40;;;7.80;80.50;;;;;;5048746;28;20032;-64
2022/03/15 06:21:43;;;;;;;12.23;5.28;;;7.80;80.60;;;;;;5048420;28;20040;-66
2022/03/15 06:24:09;;;;;;;10.95;6.28;;;7.80;80.60;;;;;;5049003;28;20487;-64
2022/03/15 06:26:36;;;;;;;16.33;7.28;;;7.80;80.70;;;;;;5048322;28;20029;-64
2022/03/15 06:29:03;;;;;;;13.88;7.65;;;7.80;80.80;;;;;;5049043;28;20074;-64
2022/03/15 06:31:30;;;;;;;10.20;6.97;;;7.80;80.80;;;;;;5048680;28;20033;-64
2022/03/15 06:33:56;;;;;;;14.25;7.07;;;7.80;80.90;;;;;;5048316;28;20488;-64
2022/03/15 06:36:21;;;;;;;10.55;6.30;;;7.80;81.00;;;;;;5047838;28;20037;-64
2022/03/15 06:38:47;;;;;;;17.95;7.03;;;7.80;81.10;;;;;;5048306;28;20086;-64
2022/03/15 06:41:14;;;;;;;12.15;6.80;;;7.80;81.30;;;;;;5048814;28;20026;-64
2022/03/15 06:43:40;;;;;;;16.73;7.70;;;7.80;81.50;;;;;;5047803;28;20097;-62
2022/03/15 06:46:08;;;;;;;9.98;6.45;;;7.80;81.50;;;;;;5064370;28;20104;-64
2022/03/15 06:48:36;;;;;;;15.93;6.90;;;7.80;81.50;;;;;;5048453;28;20021;-64
2022/03/15 06:51:02;;;;;;;12.23;7.22;;;7.90;81.50;;;;;;5027805;28;20036;-64
2022/03/15 06:53:29;;;;;;;13.65;7.25;;;7.90;81.50;;;;;;5030024;28;20030;-62
2022/03/15 06:55:55;;;;;;;9.35;6.40;;;7.90;81.60;;;;;;5047357;28;20806;-61
2022/03/15 06:58:20;;;;;;;17.08;7.35;;;7.90;81.70;;;;;;5047484;28;20139;-62
2022/03/15 07:00:47;;;;;;;11.57;6.25;;;7.90;81.70;;;;;;5048785;28;20029;-62
2022/03/15 07:03:13;;;;;;;10.43;6.63;;;7.90;81.80;;;;;;5046970;28;20017;-62
2022/03/15 07:05:40;;;;;;;17.65;7.35;;;8.00;81.90;;;;;;5048704;28;20025;-61
2022/03/15 07:08:06;;;;;;;10.90;7.03;;;8.00;82.00;;;;;;5048576;28;20036;-64
2022/03/15 07:10:32;;;;;;;12.27;5.97;;;8.00;82.10;;;;;;5048499;28;20387;-61
2022/03/15 07:12:58;;;;;;;10.95;6.90;;;8.00;82.00;;;;;;5047477;28;20503;-65
2022/03/15 07:15:24;;;;;;;12.27;6.45;;;8.00;82.00;;;;;;5051899;28;20090;-64
2022/03/15 07:17:55;;;;;;;13.65;7.85;;;8.10;82.10;;;;;;5041835;28;20037;-64
2022/03/15 07:20:22;;;;;;;11.15;6.72;;;8.10;82.10;;;;;;5036821;28;20028;-64
2022/03/15 07:22:48;;;;;;;17.02;6.55;;;8.10;82.20;;;;;;5050837;28;20021;-64
2022/03/15 07:25:14;;;;;;;12.15;7.53;;;8.20;82.20;;;;;;5046527;28;20075;-64
2022/03/15 07:27:40;;;;;;;15.07;8.35;;;8.20;82.30;;;;;;5055047;28;20504;-62
2022/03/15 07:30:07;;;;;;;15.15;8.60;;;8.20;82.20;;;;;;5056110;28;20080;-62
2022/03/15 07:32:33;;;;;;;16.50;8.60;;;8.20;82.20;;;;;;5038967;28;20025;-63
2022/03/15 07:34:58;;;;;;;13.23;7.40;;;8.30;82.20;;;;;;5051946;28;20021;-62
2022/03/15 07:37:24;;;;;;;11.98;7.03;;;8.30;82.10;;;;;;5051960;28;20047;-62
2022/03/15 07:39:50;;;;;;;11.00;6.68;;;8.30;82.10;;;;;;5052244;28;20048;-63
2022/03/15 07:42:16;;;;;;;18.73;7.20;;;8.30;82.20;;;;;;5051219;28;20111;-62
2022/03/15 07:44:42;;;;;;;9.65;5.82;;;8.30;82.10;;;;;;5051036;28;20051;-64
2022/03/15 07:47:10;;;;;;;10.70;6.78;;;8.30;82.10;;;;;;5051568;28;20036;-65
2022/03/15 07:49:36;;;;;;;18.27;6.47;;;8.40;82.10;;;;;;5051646;28;20071;-62
2022/03/15 07:52:02;;;;;;;9.20;6.38;;;8.40;82.10;;;;;;5050870;28;20033;-63
2022/03/15 07:54:28;;;;;;;11.25;7.10;;;8.40;82.20;;;;;;5052087;28;20423;-63
2022/03/15 07:56:54;;;;;;;8.80;5.93;;;8.50;82.20;;;;;;5050107;28;20033;-64
2022/03/15 07:59:20;;;;;;;9.70;6.00;;;8.50;82.20;;;;;;5051164;28;20049;-64
2022/03/15 08:01:45;;;;;;;13.75;6.28;;;8.50;82.10;;;;;;5050751;28;20113;-63
2022/03/15 08:04:11;;;;;;;19.48;6.85;;;8.60;82.20;;;;;;5051856;28;20447;-64
2022/03/15 08:06:37;;;;;;;9.07;5.93;;;8.60;82.20;;;;;;5050271;28;20037;-63
2022/03/15 08:09:03;;;;;;;9.52;5.63;;;8.60;82.10;;;;;;5051034;28;20036;-63
2022/03/15 08:11:29;;;;;;;9.63;6.03;;;8.60;82.00;;;;;;5049508;28;20025;-62
2022/03/15 08:13:56;;;;;;;11.88;5.40;;;8.70;82.00;;;;;;5048200;28;20029;-63
2022/03/15 08:16:22;;;;;;;7.47;5.15;;;8.70;81.90;;;;;;5048128;28;20491;-63
2022/03/15 08:18:53;;;;;;;12.27;5.35;;;8.70;82.00;;;;;;5049863;28;20033;-64
2022/03/15 08:21:20;;;;;;;10.05;5.15;;;8.80;82.00;;;;;;5037879;28;20033;-64
2022/03/15 08:23:46;;;;;;;10.55;5.55;;;8.80;81.90;;;;;;5043910;28;20029;-64
2022/03/15 08:26:13;;;;;;;10.25;5.03;;;8.80;81.90;;;;;;5045207;28;20029;-62
2022/03/15 08:28:39;;;;;;;9.38;5.18;;;8.90;81.90;;;;;;5031762;28;20404;-63
2022/03/15 08:31:04;;;;;;;9.65;5.32;;;8.90;81.80;;;;;;5051283;28;20033;-63
2022/03/15 08:33:30;;;;;;;11.00;4.93;;;8.90;81.70;;;;;;5049142;28;20044;-63
2022/03/15 08:35:56;;;;;;;9.10;5.05;;;8.90;81.70;;;;;;5031414;28;20065;-63
2022/03/15 08:38:21;;;;;;;7.35;5.65;;;9.00;81.60;;;;;;5044389;28;20057;-62
2022/03/15 08:40:49;;;;;;;8.07;4.88;;;9.00;81.50;;;;;;5048662;28;20123;-62
2022/03/15 08:43:15;;;;;;;9.27;4.85;;;9.00;81.40;;;;;;5050322;28;20507;-62
2022/03/15 08:45:40;;;;;;;11.45;5.05;;;9.10;81.40;;;;;;5053260;28;20036;-63
2022/03/15 08:48:07;;;;;;;9.48;4.75;;;9.10;81.20;;;;;;5065933;28;20111;-64
2022/03/15 08:50:33;;;;;;;8.85;5.50;;;9.10;81.10;;;;;;5054110;28;20021;-64
2022/03/15 08:52:59;;;;;;;9.38;5.32;;;9.20;81.10;;;;;;5065545;28;20029;-64
2022/03/15 08:55:29;;;;;;;11.98;4.82;;;9.20;81.00;;;;;;5055335;28;20036;-64
2022/03/15 08:57:55;;;;;;;8.55;4.97;;;9.20;81.00;;;;;;5063943;28;20056;-64
2022/03/15 09:00:21;;;;;;;15.43;5.70;;;9.20;81.00;;;;;;5050722;28;20487;-64
2022/03/15 09:02:47;;;;;;;9.25;4.60;;;9.30;80.90;;;;;;5059288;28;20029;-63
2022/03/15 09:05:13;;;;;;;8.90;4.80;;;9.30;80.90;;;;;;5049336;28;20044;-63
2022/03/15 09:07:42;;;;;;;8.05;4.88;;;9.30;80.70;;;;;;5034407;28;20076;-63
2022/03/15 09:10:07;;;;;;;11.15;4.30;;;9.30;80.60;;;;;;5045776;28;20060;-63
2022/03/15 09:12:34;;;;;;;8.88;4.78;;;9.30;80.50;;;;;;5045805;28;20053;-65
2022/03/15 09:15:00;;;;;;;8.60;4.93;;;9.40;80.50;;;;;;5042965;28;20033;-63
2022/03/15 09:17:25;;;;;;;7.22;4.85;;;9.40;80.40;;;;;;5042332;28;20407;-64
2022/03/15 09:19:51;;;;;;;8.05;4.90;;;9.40;80.30;;;;;;5046452;28;20075;-65
2022/03/15 09:22:17;;;;;;;10.32;6.50;;;9.40;80.30;;;;;;5037980;28;20030;-65
2022/03/15 09:24:43;;;;;;;8.48;4.55;;;9.50;80.20;;;;;;5042052;28;20399;-65
2022/03/15 09:27:10;;;;;;;7.75;5.45;;;9.50;80.10;;;;;;5048187;28;20036;-63
2022/03/15 09:29:36;;;;;;;11.15;5.03;;;9.60;80.10;;;;;;5044717;28;20086;-62
2022/03/15 09:32:04;;;;;;;13.60;7.15;;;9.60;80.00;;;;;;5037392;28;20060;-64
2022/03/15 09:34:30;;;;;;;12.40;6.35;;;9.70;79.90;;;;;;5045489;28;20036;-65
2022/03/15 09:36:59;;;;;;;10.57;6.50;;;9.70;79.80;;;;;;5035595;28;20025;-65
2022/03/15 09:39:25;;;;;;;9.30;6.32;;;9.70;79.80;;;;;;5045661;28;20033;-63
2022/03/15 09:41:54;;;;;;;9.35;5.57;;;9.70;79.70;;;;;;5043898;28;20040;-64
2022/03/15 09:44:20;;;;;;;12.98;6.53;;;9.70;79.60;;;;;;5038204;28;20477;-62
2022/03/15 09:46:51;;;;;;;18.08;5.97;;;9.80;79.30;;;;;;5043411;28;20048;-65
2022/03/15 09:49:20;;;;;;;12.07;6.40;;;9.80;79.20;;;;;;5031735;28;20026;-64
2022/03/15 09:51:46;;;;;;;11.35;5.60;;;9.80;79.20;;;;;;5030142;28;20083;-64
2022/03/15 09:54:13;;;;;;;14.95;6.22;;;9.90;79.70;;;;;;5029509;28;20029;-64
2022/03/15 09:56:40;;;;;;;10.10;5.88;;;9.90;78.90;;;;;;5036260;28;20139;-64
2022/03/15 09:59:17;;;;;;;15.20;5.60;;;10.00;78.60;;;;;;5040514;28;20083;-65
2022/03/15 10:01:44;;;;;;;7.18;4.63;;;10.00;78.50;;;;;;5034552;28;20033;-65
2022/03/15 10:04:10;;;;;;;12.52;5.65;;;10.00;78.30;;;;;;5043453;28;20452;-64
2022/03/15 10:06:37;;;;;;;6.82;4.25;;;10.00;78.20;;;;;;5040234;28;20041;-64
2022/03/15 10:09:05;;;;;;;9.38;4.43;;;10.10;78.00;;;;;;5038207;28;20036;-64
2022/03/15 10:11:31;;;;;;;7.45;4.65;;;10.10;78.00;;;;;;5040782;28;20045;-64
2022/03/15 10:13:58;;;;;;;7.85;4.60;;;10.10;77.80;;;;;;5033346;28;20021;-64
2022/03/15 10:16:36;;;;;;;13.23;4.55;;;10.10;77.60;;;;;;5041530;28;20048;-64
2022/03/15 10:19:03;;;;;;;19.58;5.90;;;10.20;77.60;;;;;;5033146;28;20094;-64
2022/03/15 10:21:40;;;;;;;16.10;5.50;;;10.20;77.00;;;;;;5040108;28;20253;-64
2022/03/15 10:24:08;;;;;;;7.10;4.45;;;10.20;77.10;;;;;;5047585;28;20068;-64
2022/03/15 10:26:38;;;;;;;13.27;5.60;;;10.20;77.20;;;;;;5046780;28;20037;-65
2022/03/15 10:29:05;;;;;;;9.73;4.72;;;10.20;77.20;;;;;;5031088;28;20018;-65
2022/03/15 10:31:31;;;;;;;13.07;4.82;;;10.30;77.10;;;;;;5072787;28;20041;-64
2022/03/15 10:34:00;;;;;;;9.32;5.35;;;10.30;77.10;;;;;;5039293;28;20029;-64
2022/03/15 10:36:27;;;;;;;7.55;4.65;;;10.30;76.90;;;;;;5048705;28;20037;-64
2022/03/15 10:38:53;;;;;;;8.02;4.28;;;10.40;76.90;;;;;;5039865;28;20030;-63
2022/03/15 10:41:20;;;;;;;8.85;4.07;;;10.40;76.80;;;;;;5040823;28;20748;-64
2022/03/15 10:43:59;;;;;;;7.03;3.53;;;10.50;76.70;;;;;;5041601;28;20033;-63
2022/03/15 10:46:26;;;;;;;18.02;5.43;;;10.50;76.60;;;;;;5028685;28;20488;-62
2022/03/15 10:49:03;;;;;;;5.28;3.50;;;10.50;76.40;;;;;;5043442;28;20014;-63
2022/03/15 10:51:29;;;;;;;4.38;3.33;;;10.50;76.30;;;;;;5042229;28;20120;-62
2022/03/15 10:54:02;;;;;;;3.35;2.70;;;10.60;76.20;;;;;;5045975;28;20547;-63
2022/03/15 10:56:28;;;;;;;6.47;3.38;;;10.60;75.70;;;;;;5045492;28;20025;-62
2022/03/15 10:59:01;;;;;;;8.07;3.70;;;10.60;75.80;;;;;;5036036;28;20050;-63
2022/03/15 11:01:28;;;;;;;6.90;3.97;;;10.70;75.80;;;;;;5049670;28;20025;-63
2022/03/15 11:04:03;;;;;;;8.02;3.45;;;10.70;75.50;;;;;;5040011;28;20108;-63
2022/03/15 11:06:43;;;;;;;10.05;3.85;;;10.70;75.20;;;;;;5045654;28;20068;-63
2022/03/15 11:09:30;;;;;;;5.68;3.78;;;10.70;75.20;;;;;;5043065;28;20032;-63
2022/03/15 11:12:02;;;;;;;8.38;4.10;;;10.70;75.30;;;;;;5043079;28;20029;-63
2022/03/15 11:14:39;;;;;;;7.45;4.10;;;10.70;75.30;;;;;;5050001;28;20029;-64
2022/03/15 11:17:20;;;;;;;10.27;4.68;;;10.70;75.30;;;;;;5048762;28;20152;-64
2022/03/15 11:19:46;;;;;;;8.38;4.90;;;10.80;75.40;;;;;;5038051;28;20034;-64
2022/03/15 11:22:14;;;;;;;9.07;5.68;;;10.80;75.00;;;;;;5045434;28;20459;-63
2022/03/15 11:24:45;;;;;;;8.65;4.82;;;10.80;75.00;;;;;;5038439;28;20770;-63
2022/03/15 11:27:14;;;;;;;10.30;4.70;;;10.80;75.00;;;;;;5047413;28;20048;-63
2022/03/15 11:29:42;;;;;;;7.45;4.35;;;10.90;75.00;;;;;;5045819;28;20034;-62
2022/03/15 11:32:10;;;;;;;14.52;5.22;;;10.90;74.90;;;;;;5043736;28;20137;-62
2022/03/15 11:34:39;;;;;;;11.00;6.05;;;10.90;74.80;;;;;;5049253;28;20029;-63
2022/03/15 11:37:05;;;;;;;9.75;5.00;;;10.90;74.70;;;;;;5048211;28;20499;-63
2022/03/15 11:39:31;;;;;;;9.85;4.75;;;11.00;74.90;;;;;;5046098;28;20094;-63
2022/03/15 11:41:58;;;;;;;13.20;5.57;;;11.00;74.80;;;;;;5045178;28;21028;-62
2022/03/15 11:44:47;;;;;;;13.80;5.15;;;11.00;74.90;;;;;;5044663;28;20034;-63
2022/03/15 11:47:21;;;;;;;8.68;4.88;;;11.00;74.80;;;;;;5046474;28;20036;-63
2022/03/15 11:50:05;;;;;;;9.80;4.22;;;11.10;74.90;;;;;;5043020;28;20111;-62
2022/03/15 11:52:56;;;;;;;6.65;4.20;;;11.10;75.40;;;;;;5038917;28;20133;-63
2022/03/15 11:55:52;;;;;;;6.63;3.95;;;11.10;74.70;;;;;;5037469;28;20093;-62
2022/03/15 11:58:26;;;;;;;6.82;4.57;;;11.10;74.60;;;;;;5033454;28;20033;-62
2022/03/15 12:00:53;;;;;;;9.73;4.53;;;11.10;74.50;;;;;;5049403;28;20028;-64
2022/03/15 12:03:23;;;;;;;4.28;3.10;;;11.20;74.00;;;;;;5042742;28;20029;-64
2022/03/15 12:05:52;;;;;;;15.32;4.95;;;11.20;73.90;;;;;;5052036;28;20037;-63
2022/03/15 12:08:20;;;;;;;6.47;4.22;;;11.20;73.90;;;;;;5037986;28;20508;-63
2022/03/15 12:10:51;;;;;;;7.65;4.15;;;11.20;73.80;;;;;;5050607;28;20020;-63
2022/03/15 12:13:18;;;;;;;8.60;3.97;;;11.20;73.80;;;;;;5035252;28;20036;-63
2022/03/15 12:15:48;;;;;;;7.28;3.28;;;11.30;73.80;;;;;;5038867;28;20124;-63
2022/03/15 12:21:02;;;;;;;5.88;2.97;;;11.40;73.80;;;;;;5050134;28;20041;-63
2022/03/15 12:23:37;;;;;;;14.63;4.53;;;11.40;73.80;;;;;;5042540;28;20529;-64
2022/03/15 12:26:03;;;;;;;7.55;3.67;;;11.50;73.70;;;;;;5042662;28;20029;-63
2022/03/15 12:28:30;;;;;;;5.78;3.42;;;11.50;73.40;;;;;;5040470;28;20032;-64
2022/03/15 12:31:07;;;;;;;6.10;3.90;;;11.50;73.20;;;;;;5042971;28;20056;-63
2022/03/15 12:33:34;;;;;;;4.65;3.60;;;11.60;73.20;;;;;;5049677;28;20083;-64
2022/03/15 12:36:02;;;;;;;7.47;4.05;;;11.60;73.10;;;;;;5045133;28;20801;-64
2022/03/15 12:38:39;;;;;;;11.35;4.05;;;11.60;72.50;;;;;;5048061;28;20120;-63
2022/03/15 12:41:06;;;;;;;14.20;4.80;;;11.60;72.00;;;;;;5037412;28;20033;-63
2022/03/15 12:43:32;;;;;;;9.02;3.28;;;11.60;72.20;;;;;;5047118;28;20083;-64
2022/03/15 12:46:05;;;;;;;6.57;3.67;;;11.70;72.20;;;;;;5036389;28;20075;-64
2022/03/15 12:48:36;;;;;;;9.27;4.30;;;11.60;71.60;;;;;;5038119;28;20025;-64
2022/03/15 12:51:03;;;;;;;5.35;3.55;;;11.60;71.20;;;;;;5036562;28;20361;-63